sensor_id;sensor_type;location;lat;lon;timestamp;P1;durP1;ratioP1;P2;durP2;ratioP2
27957;SDS011;15295;42.658;23.374;2023-11-22T00:04:32;44.63;;;23.15;;
27957;SDS011;15295;42.658;23.374;2023-11-22T00:06:58;45.50;;;24.30;;
27957;SDS011;15295;42.658;23.374;2023-11-22T00:09:29;48.92;;;25.52;;
27957;SDS011;15295;42.658;23.374;2023-11-22T00:14:45;48.03;;;24.83;;
27957;SDS011;15295;42.658;23.374;2023-11-22T00:17:11;42.35;;;23.40;;
27957;SDS011;15295;42.658;23.374;2023-11-22T00:19:37;45.83;;;23.38;;
27957;SDS011;15295;42.658;23.374;2023-11-22T00:22:03;42.13;;;23.30;;
27957;SDS011;15295;42.658;23.374;2023-11-22T00:24:36;45.13;;;23.73;;
27957;SDS011;15295;42.658;23.374;2023-11-22T00:27:02;42.58;;;24.13;;
27957;SDS011;15295;42.658;23.374;2023-11-22T00:29:28;44.42;;;24.38;;
27957;SDS011;15295;42.658;23.374;2023-11-22T00:31:54;46.35;;;24.38;;
27957;SDS011;15295;42.658;23.374;2023-11-22T00:34:20;43.97;;;22.73;;
27957;SDS011;15295;42.658;23.374;2023-11-22T00:36:45;40.15;;;22.58;;
27957;SDS011;15295;42.658;23.374;2023-11-22T00:39:11;44.00;;;22.55;;
27957;SDS011;15295;42.658;23.374;2023-11-22T00:41:39;39.40;;;23.25;;
27957;SDS011;15295;42.658;23.374;2023-11-22T00:44:04;40.75;;;22.83;;
27957;SDS011;15295;42.658;23.374;2023-11-22T00:46:32;44.13;;;22.33;;
27957;SDS011;15295;42.658;23.374;2023-11-22T00:49:00;45.90;;;22.38;;
27957;SDS011;15295;42.658;23.374;2023-11-22T00:51:34;40.53;;;21.90;;
27957;SDS011;15295;42.658;23.374;2023-11-22T00:54:03;39.40;;;21.85;;
27957;SDS011;15295;42.658;23.374;2023-11-22T00:56:28;37.15;;;21.48;;
27957;SDS011;15295;42.658;23.374;2023-11-22T00:58:54;42.17;;;22.02;;
27957;SDS011;15295;42.658;23.374;2023-11-22T01:01:31;43.63;;;22.05;;
27957;SDS011;15295;42.658;23.374;2023-11-22T01:03:57;46.25;;;22.65;;
27957;SDS011;15295;42.658;23.374;2023-11-22T01:06:23;39.50;;;22.83;;
27957;SDS011;15295;42.658;23.374;2023-11-22T01:08:50;46.50;;;23.25;;
27957;SDS011;15295;42.658;23.374;2023-11-22T01:11:15;37.50;;;21.60;;
27957;SDS011;15295;42.658;23.374;2023-11-22T01:16:30;42.17;;;22.17;;
27957;SDS011;15295;42.658;23.374;2023-11-22T01:18:55;42.70;;;22.30;;
27957;SDS011;15295;42.658;23.374;2023-11-22T01:21:21;41.05;;;22.25;;
27957;SDS011;15295;42.658;23.374;2023-11-22T01:23:54;41.03;;;22.52;;
27957;SDS011;15295;42.658;23.374;2023-11-22T01:26:20;38.90;;;22.45;;
27957;SDS011;15295;42.658;23.374;2023-11-22T01:28:45;37.85;;;21.50;;
27957;SDS011;15295;42.658;23.374;2023-11-22T01:31:11;41.03;;;21.70;;
27957;SDS011;15295;42.658;23.374;2023-11-22T01:36:08;37.95;;;21.58;;
27957;SDS011;15295;42.658;23.374;2023-11-22T01:38:34;42.00;;;21.80;;
27957;SDS011;15295;42.658;23.374;2023-11-22T01:40:59;40.53;;;21.88;;
27957;SDS011;15295;42.658;23.374;2023-11-22T01:46:35;40.72;;;21.60;;
27957;SDS011;15295;42.658;23.374;2023-11-22T01:49:01;34.95;;;20.35;;
27957;SDS011;15295;42.658;23.374;2023-11-22T01:51:32;35.20;;;20.48;;
27957;SDS011;15295;42.658;23.374;2023-11-22T01:54:10;38.03;;;20.30;;
27957;SDS011;15295;42.658;23.374;2023-11-22T01:56:37;38.33;;;20.75;;
27957;SDS011;15295;42.658;23.374;2023-11-22T01:59:03;39.17;;;21.02;;
27957;SDS011;15295;42.658;23.374;2023-11-22T02:01:30;36.42;;;21.70;;
27957;SDS011;15295;42.658;23.374;2023-11-22T02:03:59;36.50;;;20.30;;
27957;SDS011;15295;42.658;23.374;2023-11-22T02:09:23;37.00;;;20.05;;
27957;SDS011;15295;42.658;23.374;2023-11-22T02:11:48;34.17;;;20.90;;
27957;SDS011;15295;42.658;23.374;2023-11-22T02:14:15;36.28;;;20.40;;
27957;SDS011;15295;42.658;23.374;2023-11-22T02:16:42;40.55;;;21.00;;
27957;SDS011;15295;42.658;23.374;2023-11-22T02:19:12;38.65;;;20.58;;
27957;SDS011;15295;42.658;23.374;2023-11-22T02:21:39;45.35;;;21.30;;
27957;SDS011;15295;42.658;23.374;2023-11-22T02:24:11;37.95;;;21.23;;
27957;SDS011;15295;42.658;23.374;2023-11-22T02:29:22;36.42;;;20.75;;
27957;SDS011;15295;42.658;23.374;2023-11-22T02:32:00;35.20;;;20.55;;
27957;SDS011;15295;42.658;23.374;2023-11-22T02:37:14;38.60;;;20.40;;
27957;SDS011;15295;42.658;23.374;2023-11-22T02:39:49;34.47;;;20.42;;
27957;SDS011;15295;42.658;23.374;2023-11-22T02:42:22;35.92;;;21.23;;
27957;SDS011;15295;42.658;23.374;2023-11-22T02:47:43;38.70;;;20.15;;
27957;SDS011;15295;42.658;23.374;2023-11-22T02:50:12;36.90;;;20.15;;
27957;SDS011;15295;42.658;23.374;2023-11-22T02:52:47;35.65;;;19.90;;
27957;SDS011;15295;42.658;23.374;2023-11-22T02:55:13;36.03;;;20.23;;
27957;SDS011;15295;42.658;23.374;2023-11-22T02:57:39;35.17;;;20.25;;
27957;SDS011;15295;42.658;23.374;2023-11-22T03:00:15;39.35;;;20.98;;
27957;SDS011;15295;42.658;23.374;2023-11-22T03:02:43;33.70;;;19.35;;
27957;SDS011;15295;42.658;23.374;2023-11-22T03:05:11;37.20;;;20.80;;
27957;SDS011;15295;42.658;23.374;2023-11-22T03:07:39;33.67;;;20.40;;
27957;SDS011;15295;42.658;23.374;2023-11-22T03:10:06;37.70;;;20.95;;
27957;SDS011;15295;42.658;23.374;2023-11-22T03:12:32;34.72;;;19.85;;
27957;SDS011;15295;42.658;23.374;2023-11-22T03:15:11;39.55;;;19.98;;
27957;SDS011;15295;42.658;23.374;2023-11-22T03:17:37;36.50;;;19.65;;
27957;SDS011;15295;42.658;23.374;2023-11-22T03:20:04;33.92;;;19.58;;
27957;SDS011;15295;42.658;23.374;2023-11-22T03:25:06;33.33;;;19.50;;
27957;SDS011;15295;42.658;23.374;2023-11-22T03:27:35;36.95;;;20.30;;
27957;SDS011;15295;42.658;23.374;2023-11-22T03:30:00;33.53;;;19.05;;
27957;SDS011;15295;42.658;23.374;2023-11-22T03:32:26;31.98;;;18.77;;
27957;SDS011;15295;42.658;23.374;2023-11-22T03:34:51;32.45;;;19.25;;
27957;SDS011;15295;42.658;23.374;2023-11-22T03:37:17;30.42;;;17.65;;
27957;SDS011;15295;42.658;23.374;2023-11-22T03:39:44;38.75;;;19.67;;
27957;SDS011;15295;42.658;23.374;2023-11-22T03:42:13;37.47;;;20.08;;
27957;SDS011;15295;42.658;23.374;2023-11-22T03:47:16;36.38;;;18.80;;
27957;SDS011;15295;42.658;23.374;2023-11-22T03:49:42;34.88;;;18.42;;
27957;SDS011;15295;42.658;23.374;2023-11-22T03:52:10;34.97;;;18.98;;
27957;SDS011;15295;42.658;23.374;2023-11-22T03:54:50;33.65;;;18.52;;
27957;SDS011;15295;42.658;23.374;2023-11-22T03:57:16;30.08;;;18.75;;
27957;SDS011;15295;42.658;23.374;2023-11-22T03:59:42;36.00;;;18.90;;
27957;SDS011;15295;42.658;23.374;2023-11-22T04:02:08;31.55;;;18.40;;
27957;SDS011;15295;42.658;23.374;2023-11-22T04:04:36;31.80;;;19.02;;
27957;SDS011;15295;42.658;23.374;2023-11-22T04:07:04;29.80;;;18.95;;
27957;SDS011;15295;42.658;23.374;2023-11-22T04:09:30;33.80;;;17.73;;
27957;SDS011;15295;42.658;23.374;2023-11-22T04:11:56;31.75;;;17.70;;
27957;SDS011;15295;42.658;23.374;2023-11-22T04:14:25;33.17;;;17.98;;
27957;SDS011;15295;42.658;23.374;2023-11-22T04:16:52;31.27;;;18.05;;
27957;SDS011;15295;42.658;23.374;2023-11-22T04:19:18;33.72;;;18.67;;
27957;SDS011;15295;42.658;23.374;2023-11-22T04:21:48;33.33;;;18.40;;
27957;SDS011;15295;42.658;23.374;2023-11-22T04:24:19;30.63;;;17.70;;
27957;SDS011;15295;42.658;23.374;2023-11-22T04:26:45;32.13;;;18.70;;
27957;SDS011;15295;42.658;23.374;2023-11-22T04:29:10;30.90;;;18.75;;
27957;SDS011;15295;42.658;23.374;2023-11-22T04:31:36;33.00;;;18.85;;
27957;SDS011;15295;42.658;23.374;2023-11-22T04:34:02;33.97;;;19.05;;
27957;SDS011;15295;42.658;23.374;2023-11-22T04:39:20;30.92;;;18.25;;
27957;SDS011;15295;42.658;23.374;2023-11-22T04:41:45;34.03;;;19.23;;
27957;SDS011;15295;42.658;23.374;2023-11-22T04:44:11;36.20;;;19.27;;
27957;SDS011;15295;42.658;23.374;2023-11-22T04:46:40;35.60;;;19.15;;
27957;SDS011;15295;42.658;23.374;2023-11-22T04:49:05;33.65;;;18.52;;
27957;SDS011;15295;42.658;23.374;2023-11-22T04:51:32;33.85;;;17.58;;
27957;SDS011;15295;42.658;23.374;2023-11-22T04:53:59;35.15;;;19.25;;
27957;SDS011;15295;42.658;23.374;2023-11-22T04:56:31;34.17;;;19.77;;
27957;SDS011;15295;42.658;23.374;2023-11-22T04:58:56;34.97;;;19.65;;
27957;SDS011;15295;42.658;23.374;2023-11-22T05:01:32;33.20;;;19.58;;
27957;SDS011;15295;42.658;23.374;2023-11-22T05:03:58;29.67;;;18.27;;
27957;SDS011;15295;42.658;23.374;2023-11-22T05:08:55;36.88;;;19.55;;
27957;SDS011;15295;42.658;23.374;2023-11-22T05:11:21;36.95;;;20.08;;
27957;SDS011;15295;42.658;23.374;2023-11-22T05:13:49;33.60;;;19.33;;
27957;SDS011;15295;42.658;23.374;2023-11-22T05:16:27;32.90;;;18.85;;
27957;SDS011;15295;42.658;23.374;2023-11-22T05:18:52;32.65;;;18.58;;
27957;SDS011;15295;42.658;23.374;2023-11-22T05:21:18;34.72;;;19.10;;
27957;SDS011;15295;42.658;23.374;2023-11-22T05:23:43;32.92;;;19.48;;
27957;SDS011;15295;42.658;23.374;2023-11-22T05:26:11;34.40;;;19.77;;
27957;SDS011;15295;42.658;23.374;2023-11-22T05:28:36;36.20;;;20.73;;
27957;SDS011;15295;42.658;23.374;2023-11-22T05:31:03;33.78;;;19.92;;
27957;SDS011;15295;42.658;23.374;2023-11-22T05:33:29;33.55;;;19.27;;
27957;SDS011;15295;42.658;23.374;2023-11-22T05:35:57;35.05;;;19.85;;
27957;SDS011;15295;42.658;23.374;2023-11-22T05:38:23;32.20;;;19.70;;
27957;SDS011;15295;42.658;23.374;2023-11-22T05:40:48;32.95;;;19.98;;
27957;SDS011;15295;42.658;23.374;2023-11-22T05:43:14;36.92;;;20.42;;
27957;SDS011;15295;42.658;23.374;2023-11-22T05:45:42;29.88;;;18.33;;
27957;SDS011;15295;42.658;23.374;2023-11-22T05:48:07;34.40;;;20.40;;
27957;SDS011;15295;42.658;23.374;2023-11-22T05:50:33;43.65;;;20.25;;
27957;SDS011;15295;42.658;23.374;2023-11-22T05:55:36;40.92;;;21.77;;
27957;SDS011;15295;42.658;23.374;2023-11-22T05:58:03;39.88;;;20.10;;
27957;SDS011;15295;42.658;23.374;2023-11-22T06:00:29;35.67;;;19.60;;
27957;SDS011;15295;42.658;23.374;2023-11-22T06:02:54;38.50;;;20.98;;
27957;SDS011;15295;42.658;23.374;2023-11-22T06:08:09;34.60;;;19.35;;
27957;SDS011;15295;42.658;23.374;2023-11-22T06:10:35;38.13;;;20.27;;
27957;SDS011;15295;42.658;23.374;2023-11-22T06:13:02;40.20;;;22.23;;
27957;SDS011;15295;42.658;23.374;2023-11-22T06:15:28;39.10;;;21.60;;
27957;SDS011;15295;42.658;23.374;2023-11-22T06:26:22;41.35;;;23.60;;
27957;SDS011;15295;42.658;23.374;2023-11-22T06:28:47;41.35;;;22.85;;
27957;SDS011;15295;42.658;23.374;2023-11-22T06:31:14;46.00;;;24.00;;
27957;SDS011;15295;42.658;23.374;2023-11-22T06:33:42;42.53;;;23.60;;
27957;SDS011;15295;42.658;23.374;2023-11-22T06:36:16;40.33;;;25.52;;
27957;SDS011;15295;42.658;23.374;2023-11-22T06:38:45;38.28;;;25.15;;
27957;SDS011;15295;42.658;23.374;2023-11-22T06:41:12;38.28;;;23.08;;
27957;SDS011;15295;42.658;23.374;2023-11-22T06:43:37;40.40;;;22.65;;
27957;SDS011;15295;42.658;23.374;2023-11-22T06:46:03;37.03;;;22.55;;
27957;SDS011;15295;42.658;23.374;2023-11-22T06:53:55;36.42;;;20.77;;
27957;SDS011;15295;42.658;23.374;2023-11-22T06:56:29;32.15;;;20.67;;
27957;SDS011;15295;42.658;23.374;2023-11-22T06:59:19;31.80;;;20.20;;
27957;SDS011;15295;42.658;23.374;2023-11-22T07:02:06;36.97;;;22.20;;
27957;SDS011;15295;42.658;23.374;2023-11-22T07:04:32;33.92;;;20.75;;
27957;SDS011;15295;42.658;23.374;2023-11-22T07:06:59;38.47;;;22.80;;
27957;SDS011;15295;42.658;23.374;2023-11-22T07:09:28;37.67;;;21.23;;
27957;SDS011;15295;42.658;23.374;2023-11-22T07:11:54;37.70;;;21.67;;
27957;SDS011;15295;42.658;23.374;2023-11-22T07:14:19;40.40;;;21.52;;
27957;SDS011;15295;42.658;23.374;2023-11-22T07:16:53;41.97;;;23.00;;
27957;SDS011;15295;42.658;23.374;2023-11-22T07:19:18;45.78;;;26.98;;
27957;SDS011;15295;42.658;23.374;2023-11-22T07:21:44;43.20;;;24.67;;
27957;SDS011;15295;42.658;23.374;2023-11-22T07:24:09;37.85;;;24.25;;
27957;SDS011;15295;42.658;23.374;2023-11-22T07:26:39;36.53;;;22.20;;
27957;SDS011;15295;42.658;23.374;2023-11-22T07:29:06;35.97;;;21.00;;
27957;SDS011;15295;42.658;23.374;2023-11-22T07:31:32;30.80;;;20.55;;
27957;SDS011;15295;42.658;23.374;2023-11-22T07:36:31;32.15;;;18.90;;
27957;SDS011;15295;42.658;23.374;2023-11-22T07:39:07;31.40;;;19.77;;
27957;SDS011;15295;42.658;23.374;2023-11-22T07:41:33;34.90;;;20.20;;
27957;SDS011;15295;42.658;23.374;2023-11-22T07:46:35;32.95;;;21.15;;
27957;SDS011;15295;42.658;23.374;2023-11-22T07:49:03;36.60;;;22.08;;
27957;SDS011;15295;42.658;23.374;2023-11-22T07:51:29;38.65;;;22.48;;
27957;SDS011;15295;42.658;23.374;2023-11-22T07:53:55;35.47;;;21.33;;
27957;SDS011;15295;42.658;23.374;2023-11-22T07:56:20;32.92;;;21.65;;
27957;SDS011;15295;42.658;23.374;2023-11-22T07:58:47;34.15;;;20.98;;
27957;SDS011;15295;42.658;23.374;2023-11-22T08:01:12;39.47;;;22.55;;
27957;SDS011;15295;42.658;23.374;2023-11-22T08:03:39;33.28;;;19.67;;
27957;SDS011;15295;42.658;23.374;2023-11-22T08:06:10;34.80;;;19.80;;
27957;SDS011;15295;42.658;23.374;2023-11-22T08:08:36;31.42;;;19.48;;
27957;SDS011;15295;42.658;23.374;2023-11-22T08:11:04;34.03;;;19.55;;
27957;SDS011;15295;42.658;23.374;2023-11-22T08:13:46;30.35;;;20.40;;
27957;SDS011;15295;42.658;23.374;2023-11-22T08:16:13;30.08;;;19.42;;
27957;SDS011;15295;42.658;23.374;2023-11-22T08:18:44;34.08;;;20.40;;
27957;SDS011;15295;42.658;23.374;2023-11-22T08:21:12;32.17;;;19.67;;
27957;SDS011;15295;42.658;23.374;2023-11-22T08:23:41;31.05;;;18.60;;
27957;SDS011;15295;42.658;23.374;2023-11-22T08:26:06;27.38;;;18.20;;
27957;SDS011;15295;42.658;23.374;2023-11-22T08:28:51;27.73;;;18.02;;
27957;SDS011;15295;42.658;23.374;2023-11-22T08:31:16;33.88;;;19.08;;
27957;SDS011;15295;42.658;23.374;2023-11-22T08:33:42;31.17;;;17.45;;
27957;SDS011;15295;42.658;23.374;2023-11-22T08:36:08;35.47;;;20.15;;
27957;SDS011;15295;42.658;23.374;2023-11-22T08:38:34;31.30;;;19.40;;
27957;SDS011;15295;42.658;23.374;2023-11-22T08:41:02;30.25;;;19.73;;
27957;SDS011;15295;42.658;23.374;2023-11-22T08:43:29;35.00;;;19.15;;
27957;SDS011;15295;42.658;23.374;2023-11-22T08:45:57;29.13;;;18.60;;
27957;SDS011;15295;42.658;23.374;2023-11-22T08:48:31;32.28;;;18.08;;
27957;SDS011;15295;42.658;23.374;2023-11-22T08:50:57;34.65;;;20.45;;
27957;SDS011;15295;42.658;23.374;2023-11-22T08:53:23;33.15;;;20.52;;
27957;SDS011;15295;42.658;23.374;2023-11-22T08:55:49;33.95;;;20.77;;
27957;SDS011;15295;42.658;23.374;2023-11-22T08:58:15;34.90;;;21.58;;
27957;SDS011;15295;42.658;23.374;2023-11-22T09:00:41;33.20;;;20.30;;
27957;SDS011;15295;42.658;23.374;2023-11-22T09:03:07;29.65;;;19.05;;
27957;SDS011;15295;42.658;23.374;2023-11-22T09:06:08;54.65;;;34.15;;
27957;SDS011;15295;42.658;23.374;2023-11-22T09:08:43;40.70;;;22.65;;
27957;SDS011;15295;42.658;23.374;2023-11-22T09:11:11;40.92;;;22.85;;
27957;SDS011;15295;42.658;23.374;2023-11-22T09:13:36;30.38;;;19.40;;
27957;SDS011;15295;42.658;23.374;2023-11-22T09:18:39;38.90;;;24.42;;
27957;SDS011;15295;42.658;23.374;2023-11-22T09:21:05;31.55;;;19.95;;
27957;SDS011;15295;42.658;23.374;2023-11-22T09:23:31;32.85;;;19.45;;
27957;SDS011;15295;42.658;23.374;2023-11-22T09:25:56;31.92;;;21.33;;
27957;SDS011;15295;42.658;23.374;2023-11-22T09:28:22;36.80;;;24.00;;
27957;SDS011;15295;42.658;23.374;2023-11-22T09:30:47;48.90;;;28.65;;
27957;SDS011;15295;42.658;23.374;2023-11-22T09:33:14;49.70;;;35.45;;
27957;SDS011;15295;42.658;23.374;2023-11-22T09:35:41;50.88;;;33.40;;
27957;SDS011;15295;42.658;23.374;2023-11-22T09:38:11;46.78;;;31.13;;
27957;SDS011;15295;42.658;23.374;2023-11-22T09:40:40;44.65;;;28.05;;
27957;SDS011;15295;42.658;23.374;2023-11-22T09:43:14;45.92;;;26.55;;
27957;SDS011;15295;42.658;23.374;2023-11-22T09:45:42;43.25;;;26.13;;
27957;SDS011;15295;42.658;23.374;2023-11-22T09:48:14;41.75;;;25.75;;
27957;SDS011;15295;42.658;23.374;2023-11-22T09:56:08;37.60;;;24.15;;
27957;SDS011;15295;42.658;23.374;2023-11-22T09:58:35;39.55;;;25.02;;
27957;SDS011;15295;42.658;23.374;2023-11-22T10:01:14;39.85;;;23.30;;
27957;SDS011;15295;42.658;23.374;2023-11-22T10:03:41;64.57;;;41.47;;
27957;SDS011;15295;42.658;23.374;2023-11-22T10:06:07;41.88;;;26.15;;
27957;SDS011;15295;42.658;23.374;2023-11-22T10:08:33;40.50;;;24.38;;
27957;SDS011;15295;42.658;23.374;2023-11-22T10:11:00;33.60;;;22.75;;
27957;SDS011;15295;42.658;23.374;2023-11-22T10:13:26;36.78;;;23.17;;
27957;SDS011;15295;42.658;23.374;2023-11-22T10:15:52;38.25;;;23.27;;
27957;SDS011;15295;42.658;23.374;2023-11-22T10:18:18;36.47;;;23.23;;
27957;SDS011;15295;42.658;23.374;2023-11-22T10:20:45;38.83;;;24.55;;
27957;SDS011;15295;42.658;23.374;2023-11-22T10:23:14;37.90;;;23.23;;
27957;SDS011;15295;42.658;23.374;2023-11-22T10:25:44;35.53;;;24.05;;
27957;SDS011;15295;42.658;23.374;2023-11-22T10:28:12;37.95;;;25.23;;
27957;SDS011;15295;42.658;23.374;2023-11-22T10:30:52;39.42;;;24.73;;
27957;SDS011;15295;42.658;23.374;2023-11-22T10:33:22;40.40;;;24.60;;
27957;SDS011;15295;42.658;23.374;2023-11-22T10:35:49;37.40;;;23.52;;
27957;SDS011;15295;42.658;23.374;2023-11-22T10:38:19;43.80;;;27.10;;
27957;SDS011;15295;42.658;23.374;2023-11-22T10:40:45;39.83;;;25.15;;
27957;SDS011;15295;42.658;23.374;2023-11-22T10:43:13;37.53;;;25.05;;
27957;SDS011;15295;42.658;23.374;2023-11-22T10:45:39;43.60;;;24.27;;
27957;SDS011;15295;42.658;23.374;2023-11-22T10:48:06;38.35;;;25.13;;
27957;SDS011;15295;42.658;23.374;2023-11-22T10:50:36;48.58;;;29.27;;
27957;SDS011;15295;42.658;23.374;2023-11-22T10:53:02;45.33;;;27.52;;
27957;SDS011;15295;42.658;23.374;2023-11-22T10:55:32;47.15;;;28.73;;
27957;SDS011;15295;42.658;23.374;2023-11-22T10:58:01;39.80;;;26.98;;
27957;SDS011;15295;42.658;23.374;2023-11-22T11:00:29;44.97;;;27.30;;
27957;SDS011;15295;42.658;23.374;2023-11-22T11:03:01;38.38;;;25.85;;
27957;SDS011;15295;42.658;23.374;2023-11-22T11:08:11;52.92;;;31.40;;
27957;SDS011;15295;42.658;23.374;2023-11-22T11:13:08;39.90;;;27.08;;
27957;SDS011;15295;42.658;23.374;2023-11-22T11:15:34;44.05;;;29.42;;
27957;SDS011;15295;42.658;23.374;2023-11-22T11:18:04;45.42;;;27.98;;
27957;SDS011;15295;42.658;23.374;2023-11-22T11:23:53;44.17;;;27.02;;
27957;SDS011;15295;42.658;23.374;2023-11-22T11:26:27;51.13;;;34.08;;
27957;SDS011;15295;42.658;23.374;2023-11-22T11:28:52;46.05;;;26.00;;
27957;SDS011;15295;42.658;23.374;2023-11-22T11:31:21;41.55;;;24.67;;
27957;SDS011;15295;42.658;23.374;2023-11-22T11:36:15;38.85;;;24.38;;
27957;SDS011;15295;42.658;23.374;2023-11-22T11:38:54;38.00;;;24.58;;
27957;SDS011;15295;42.658;23.374;2023-11-22T11:41:28;39.55;;;24.75;;
27957;SDS011;15295;42.658;23.374;2023-11-22T11:44:02;39.85;;;25.35;;
27957;SDS011;15295;42.658;23.374;2023-11-22T11:46:32;39.63;;;25.35;;
27957;SDS011;15295;42.658;23.374;2023-11-22T11:48:58;39.85;;;25.85;;
27957;SDS011;15295;42.658;23.374;2023-11-22T11:53:50;40.22;;;23.95;;
27957;SDS011;15295;42.658;23.374;2023-11-22T11:56:16;43.63;;;24.75;;
27957;SDS011;15295;42.658;23.374;2023-11-22T11:58:45;41.80;;;24.63;;
27957;SDS011;15295;42.658;23.374;2023-11-22T12:01:12;41.00;;;24.63;;
27957;SDS011;15295;42.658;23.374;2023-11-22T12:03:41;38.50;;;23.90;;
27957;SDS011;15295;42.658;23.374;2023-11-22T12:06:06;36.08;;;25.27;;
27957;SDS011;15295;42.658;23.374;2023-11-22T12:08:33;43.28;;;25.92;;
27957;SDS011;15295;42.658;23.374;2023-11-22T12:11:04;36.55;;;23.88;;
27957;SDS011;15295;42.658;23.374;2023-11-22T12:13:33;39.38;;;25.35;;
27957;SDS011;15295;42.658;23.374;2023-11-22T12:16:00;42.25;;;24.40;;
27957;SDS011;15295;42.658;23.374;2023-11-22T12:18:28;41.90;;;24.10;;
27957;SDS011;15295;42.658;23.374;2023-11-22T12:20:54;40.05;;;26.10;;
27957;SDS011;15295;42.658;23.374;2023-11-22T12:23:24;41.80;;;24.23;;
27957;SDS011;15295;42.658;23.374;2023-11-22T12:25:58;40.67;;;21.95;;
27957;SDS011;15295;42.658;23.374;2023-11-22T12:28:29;35.67;;;21.92;;
27957;SDS011;15295;42.658;23.374;2023-11-22T12:30:55;34.70;;;22.30;;
27957;SDS011;15295;42.658;23.374;2023-11-22T12:33:34;32.08;;;21.77;;
27957;SDS011;15295;42.658;23.374;2023-11-22T12:36:01;33.30;;;21.20;;
27957;SDS011;15295;42.658;23.374;2023-11-22T12:38:28;32.60;;;20.15;;
27957;SDS011;15295;42.658;23.374;2023-11-22T12:40:56;32.30;;;20.80;;
27957;SDS011;15295;42.658;23.374;2023-11-22T12:43:25;29.80;;;20.83;;
27957;SDS011;15295;42.658;23.374;2023-11-22T12:46:00;37.42;;;20.70;;
27957;SDS011;15295;42.658;23.374;2023-11-22T12:48:33;43.70;;;25.17;;
27957;SDS011;15295;42.658;23.374;2023-11-22T12:51:15;42.25;;;25.60;;
27957;SDS011;15295;42.658;23.374;2023-11-22T12:53:51;47.60;;;25.88;;
27957;SDS011;15295;42.658;23.374;2023-11-22T12:56:17;37.50;;;26.05;;
27957;SDS011;15295;42.658;23.374;2023-11-22T12:58:42;40.90;;;26.63;;
27957;SDS011;15295;42.658;23.374;2023-11-22T13:01:08;43.25;;;25.98;;
27957;SDS011;15295;42.658;23.374;2023-11-22T13:03:33;50.08;;;28.45;;
27957;SDS011;15295;42.658;23.374;2023-11-22T13:05:59;61.03;;;32.20;;
27957;SDS011;15295;42.658;23.374;2023-11-22T13:08:24;52.20;;;30.25;;
27957;SDS011;15295;42.658;23.374;2023-11-22T13:10:54;45.88;;;28.50;;
27957;SDS011;15295;42.658;23.374;2023-11-22T13:13:20;46.38;;;28.00;;
27957;SDS011;15295;42.658;23.374;2023-11-22T13:15:46;47.80;;;28.30;;
27957;SDS011;15295;42.658;23.374;2023-11-22T13:18:12;41.33;;;28.20;;
27957;SDS011;15295;42.658;23.374;2023-11-22T13:20:40;45.92;;;28.30;;
27957;SDS011;15295;42.658;23.374;2023-11-22T13:23:05;49.83;;;28.52;;
27957;SDS011;15295;42.658;23.374;2023-11-22T13:25:32;46.55;;;26.60;;
27957;SDS011;15295;42.658;23.374;2023-11-22T13:27:58;48.65;;;26.85;;
27957;SDS011;15295;42.658;23.374;2023-11-22T13:30:24;41.30;;;26.35;;
27957;SDS011;15295;42.658;23.374;2023-11-22T13:32:50;48.80;;;26.77;;
27957;SDS011;15295;42.658;23.374;2023-11-22T13:35:21;41.08;;;25.00;;
27957;SDS011;15295;42.658;23.374;2023-11-22T13:37:47;41.22;;;26.05;;
27957;SDS011;15295;42.658;23.374;2023-11-22T13:40:14;39.78;;;26.17;;
27957;SDS011;15295;42.658;23.374;2023-11-22T13:42:45;43.17;;;25.42;;
27957;SDS011;15295;42.658;23.374;2023-11-22T13:45:13;39.50;;;24.88;;
27957;SDS011;15295;42.658;23.374;2023-11-22T13:47:46;36.78;;;23.58;;
27957;SDS011;15295;42.658;23.374;2023-11-22T13:50:13;40.10;;;23.50;;
27957;SDS011;15295;42.658;23.374;2023-11-22T13:52:46;35.00;;;23.23;;
27957;SDS011;15295;42.658;23.374;2023-11-22T13:55:12;45.83;;;25.52;;
27957;SDS011;15295;42.658;23.374;2023-11-22T13:57:38;39.22;;;24.30;;
27957;SDS011;15295;42.658;23.374;2023-11-22T14:00:08;43.45;;;23.40;;
27957;SDS011;15295;42.658;23.374;2023-11-22T14:02:47;39.85;;;23.05;;
27957;SDS011;15295;42.658;23.374;2023-11-22T14:05:16;42.20;;;24.17;;
27957;SDS011;15295;42.658;23.374;2023-11-22T14:07:42;32.63;;;21.33;;
27957;SDS011;15295;42.658;23.374;2023-11-22T14:10:09;39.60;;;22.23;;
27957;SDS011;15295;42.658;23.374;2023-11-22T14:12:36;39.17;;;25.98;;
27957;SDS011;15295;42.658;23.374;2023-11-22T14:15:03;39.97;;;23.02;;
27957;SDS011;15295;42.658;23.374;2023-11-22T14:17:30;39.47;;;23.65;;
27957;SDS011;15295;42.658;23.374;2023-11-22T14:19:55;35.75;;;23.25;;
27957;SDS011;15295;42.658;23.374;2023-11-22T14:22:22;43.03;;;27.77;;
27957;SDS011;15295;42.658;23.374;2023-11-22T14:24:48;37.47;;;22.85;;
27957;SDS011;15295;42.658;23.374;2023-11-22T14:27:15;32.15;;;19.08;;
27957;SDS011;15295;42.658;23.374;2023-11-22T14:29:41;38.97;;;20.23;;
27957;SDS011;15295;42.658;23.374;2023-11-22T14:32:07;33.10;;;19.27;;
27957;SDS011;15295;42.658;23.374;2023-11-22T14:34:33;28.45;;;17.88;;
27957;SDS011;15295;42.658;23.374;2023-11-22T14:36:59;31.27;;;17.38;;
27957;SDS011;15295;42.658;23.374;2023-11-22T14:39:24;25.08;;;15.70;;
27957;SDS011;15295;42.658;23.374;2023-11-22T14:41:51;26.70;;;16.02;;
27957;SDS011;15295;42.658;23.374;2023-11-22T14:44:17;20.60;;;14.25;;
27957;SDS011;15295;42.658;23.374;2023-11-22T14:46:46;22.73;;;13.68;;
27957;SDS011;15295;42.658;23.374;2023-11-22T14:49:11;21.75;;;12.48;;
27957;SDS011;15295;42.658;23.374;2023-11-22T14:51:39;28.48;;;18.58;;
27957;SDS011;15295;42.658;23.374;2023-11-22T14:54:05;20.77;;;12.52;;
27957;SDS011;15295;42.658;23.374;2023-11-22T14:56:31;22.73;;;12.18;;
27957;SDS011;15295;42.658;23.374;2023-11-22T14:58:57;18.27;;;11.55;;
27957;SDS011;15295;42.658;23.374;2023-11-22T15:01:23;18.33;;;12.27;;
27957;SDS011;15295;42.658;23.374;2023-11-22T15:03:50;19.90;;;11.35;;
27957;SDS011;15295;42.658;23.374;2023-11-22T15:06:17;21.35;;;12.60;;
27957;SDS011;15295;42.658;23.374;2023-11-22T15:08:43;18.63;;;10.82;;
27957;SDS011;15295;42.658;23.374;2023-11-22T15:11:08;20.95;;;11.77;;
27957;SDS011;15295;42.658;23.374;2023-11-22T15:13:34;20.38;;;12.20;;
27957;SDS011;15295;42.658;23.374;2023-11-22T15:16:18;19.25;;;13.23;;
27957;SDS011;15295;42.658;23.374;2023-11-22T15:18:44;18.40;;;11.82;;
27957;SDS011;15295;42.658;23.374;2023-11-22T15:21:09;22.23;;;12.63;;
27957;SDS011;15295;42.658;23.374;2023-11-22T15:23:35;23.95;;;14.20;;
27957;SDS011;15295;42.658;23.374;2023-11-22T15:26:00;20.45;;;13.82;;
27957;SDS011;15295;42.658;23.374;2023-11-22T15:28:26;27.58;;;14.40;;
27957;SDS011;15295;42.658;23.374;2023-11-22T15:30:51;23.52;;;13.65;;
27957;SDS011;15295;42.658;23.374;2023-11-22T15:33:23;23.40;;;13.65;;
27957;SDS011;15295;42.658;23.374;2023-11-22T15:35:49;28.13;;;13.77;;